Point, Louisiana
Current Conditions -  °F | °C
As of 2:35 PM on Friday 28 Nov 2014 (Local Time) from KRSN Reporting Station
Clear Clear  
Wind Chill: 63°   Ceiling: Unl
Heat Index: 63°   Visibility: 10mi
Dew Point: 35°   Wind: 8mph
Humidity: 35%   Direction: 190°S
Pressure: 30.25"   Gusts: NA
Location:  32.6533°N, 92.3683°W
Report Text: KRSN 282035Z AUTO 19007KT 10SM CLR 17/02 A3025 RMK AO2 T01710015
Loading
Personal Weather Stations






























Interactive Weather Map New forecast layout! Learn more

10-Day Weather Forecast

Advertisements
Track Severe Weather on mobile